Time;durP1;ratioP1;P1;durP2;ratioP2;P2;SDS_P1;SDS_P2;PMS_P1;PMS_P2;Temp;Humidity;BMP_temperature;BMP_pressure;BME280_temperature;BME280_humidity;BME280_pressure;Samples;Min_cycle;Max_cycle;Signal;HPM_P1;HPM_P2
2022/10/12 00:02:22;;;;;;;;;;;18.00;99.90;;;;;;5013725;28;19921;-25
2022/10/12 00:04:47;;;;;;;;;;;17.90;99.90;;;;;;5013428;28;19916;-25
2022/10/12 00:07:13;;;;;;;;;;;17.90;99.90;;;;;;5013513;28;19912;-26
2022/10/12 00:09:38;;;;;;;;;;;17.90;99.90;;;;;;5013101;28;20321;-25
2022/10/12 00:12:04;;;;;;;;;;;17.90;99.90;;;;;;5013437;28;20001;-26
2022/10/12 00:14:29;;;;;;;;;;;17.90;99.90;;;;;;5013044;28;19906;-26
2022/10/12 00:16:55;;;;;;;;;;;17.90;99.90;;;;;;5013234;28;19905;-26
2022/10/12 00:19:20;;;;;;;;;;;17.90;99.90;;;;;;5013032;28;20264;-25
2022/10/12 00:21:46;;;;;;;;;;;17.90;99.90;;;;;;5013431;28;19905;-25
2022/10/12 00:24:11;;;;;;;;;;;17.90;99.90;;;;;;5012984;28;20129;-27
2022/10/12 00:26:37;;;;;;;;;;;17.90;99.90;;;;;;5013283;28;19905;-24
2022/10/12 00:29:03;;;;;;;;;;;17.90;99.90;;;;;;5013055;28;19913;-26
2022/10/12 00:31:29;;;;;;;;;;;17.90;99.90;;;;;;5013273;28;19905;-27
2022/10/12 00:33:54;;;;;;;;;;;17.90;99.90;;;;;;5013181;28;19909;-25
2022/10/12 00:36:20;;;;;;;;;;;17.90;99.90;;;;;;5013009;28;19905;-27
2022/10/12 00:38:46;;;;;;;;;;;17.90;99.90;;;;;;5012853;28;20023;-25
2022/10/12 00:41:12;;;;;;;;;;;17.90;99.90;;;;;;5012691;28;19905;-27
2022/10/12 00:43:40;;;;;;;;;;;17.90;99.90;;;;;;5012777;28;20386;-25
2022/10/12 00:46:11;;;;;;;;;;;17.90;99.90;;;;;;5012570;28;19905;-25
2022/10/12 00:48:37;;;;;;;;;;;17.90;99.90;;;;;;5012793;28;19905;-25
2022/10/12 00:51:03;;;;;;;;;;;17.90;99.90;;;;;;5012661;28;20347;-26
2022/10/12 00:53:33;;;;;;;;;;;17.90;99.90;;;;;;5012543;28;20000;-25
2022/10/12 00:56:01;;;;;;;;;;;17.90;99.90;;;;;;5012728;28;19906;-25
2022/10/12 00:58:30;;;;;;;;;;;17.80;99.90;;;;;;5012556;28;20369;-25
2022/10/12 01:00:55;;;;;;;;;;;17.80;99.90;;;;;;5012676;28;19916;-25
2022/10/12 01:03:21;;;;;;;;;;;17.90;99.90;;;;;;5012325;28;19996;-25
2022/10/12 01:05:47;;;;;;;;;;;17.90;99.90;;;;;;5012416;28;20334;-25
2022/10/12 01:08:13;;;;;;;;;;;17.90;99.90;;;;;;5012221;28;19905;-27
2022/10/12 01:10:38;;;;;;;;;;;17.80;99.90;;;;;;5012352;28;19952;-26
2022/10/12 01:13:04;;;;;;;;;;;17.90;99.90;;;;;;5012141;28;19905;-25
2022/10/12 01:15:35;;;;;;;;;;;17.90;99.90;;;;;;5012604;28;20294;-25
2022/10/12 01:18:16;;;;;;;;;;;17.80;99.90;;;;;;5012049;28;19912;-25
2022/10/12 01:21:00;;;;;;;;;;;17.90;99.90;;;;;;5012746;28;19917;-25
2022/10/12 01:23:39;;;;;;;;;;;17.80;99.90;;;;;;5012347;28;19905;-26
2022/10/12 01:26:23;;;;;;;;;;;17.80;99.90;;;;;;5012377;28;19912;-25
2022/10/12 01:28:48;;;;;;;;;;;17.90;99.90;;;;;;5011852;28;20358;-25
2022/10/12 01:31:23;;;;;;;;;;;17.80;99.90;;;;;;5012160;28;19988;-25
2022/10/12 01:34:15;;;;;;;;;;;17.80;99.90;;;;;;5012141;28;19905;-25
2022/10/12 01:36:45;;;;;;;;;;;17.80;99.90;;;;;;5009966;28;19905;-26
2022/10/12 01:39:13;;;;;;;;;;;17.80;99.90;;;;;;5012044;28;20290;-25
2022/10/12 01:41:43;;;;;;;;;;;17.90;99.90;;;;;;5010731;28;19906;-25
2022/10/12 01:44:09;;;;;;;;;;;17.80;99.90;;;;;;5011902;28;20271;-25
2022/10/12 01:46:38;;;;;;;;;;;17.80;99.90;;;;;;5012119;28;19905;-27
2022/10/12 01:49:04;;;;;;;;;;;17.80;99.90;;;;;;5011971;28;19920;-25
2022/10/12 01:51:39;;;;;;;;;;;17.80;99.90;;;;;;5012032;28;19905;-25
2022/10/12 01:54:19;;;;;;;;;;;17.80;99.90;;;;;;5011841;28;20001;-26
2022/10/12 01:56:45;;;;;;;;;;;17.80;99.90;;;;;;5011960;28;19909;-25
2022/10/12 01:59:25;;;;;;;;;;;17.80;99.90;;;;;;5011888;28;19912;-25
2022/10/12 02:02:05;;;;;;;;;;;17.80;99.90;;;;;;5012089;28;19906;-25
2022/10/12 02:04:57;;;;;;;;;;;17.80;99.90;;;;;;5011764;28;19948;-25
2022/10/12 02:07:30;;;;;;;;;;;17.80;99.90;;;;;;5009704;28;20271;-25
2022/10/12 02:09:57;;;;;;;;;;;17.80;99.90;;;;;;5011987;28;20032;-25
2022/10/12 02:12:24;;;;;;;;;;;17.80;99.90;;;;;;5011933;28;20004;-25
2022/10/12 02:14:52;;;;;;;;;;;17.80;99.90;;;;;;5011687;28;19913;-26
2022/10/12 02:17:20;;;;;;;;;;;17.80;99.90;;;;;;5011863;28;19905;-25
2022/10/12 02:19:48;;;;;;;;;;;17.80;99.90;;;;;;5011720;28;19982;-25
2022/10/12 02:22:14;;;;;;;;;;;17.80;99.90;;;;;;5014564;28;19905;-25
2022/10/12 02:24:41;;;;;;;;;;;17.80;99.90;;;;;;5015436;28;20278;-25
2022/10/12 02:27:09;;;;;;;;;;;17.80;99.90;;;;;;5015326;28;19905;-25
2022/10/12 02:29:39;;;;;;;;;;;17.80;99.90;;;;;;5015258;28;19909;-25
2022/10/12 02:32:09;;;;;;;;;;;17.80;99.90;;;;;;5015166;28;19909;-25
2022/10/12 02:34:36;;;;;;;;;;;17.80;99.90;;;;;;5015279;28;19988;-25
2022/10/12 02:37:10;;;;;;;;;;;17.80;99.90;;;;;;5015186;28;19971;-25
2022/10/12 02:39:39;;;;;;;;;;;17.80;99.90;;;;;;5015119;28;19951;-26
2022/10/12 02:42:08;;;;;;;;;;;17.80;99.90;;;;;;5015084;28;20367;-25
2022/10/12 02:44:36;;;;;;;;;;;17.80;99.90;;;;;;5014821;28;19905;-25
2022/10/12 02:47:03;;;;;;;;;;;17.80;99.90;;;;;;5014919;28;19917;-25
2022/10/12 02:49:30;;;;;;;;;;;17.80;99.90;;;;;;5014882;28;19909;-25
2022/10/12 02:51:56;;;;;;;;;;;17.80;99.90;;;;;;5014860;28;20323;-25
2022/10/12 02:54:22;;;;;;;;;;;17.80;99.90;;;;;;5014501;28;19909;-25
2022/10/12 02:56:47;;;;;;;;;;;17.80;99.90;;;;;;5014827;28;19915;-25
2022/10/12 02:59:13;;;;;;;;;;;17.80;99.90;;;;;;5014880;28;19909;-26
2022/10/12 03:01:40;;;;;;;;;;;17.80;99.90;;;;;;5014813;28;20025;-25
2022/10/12 03:04:05;;;;;;;;;;;17.70;99.90;;;;;;5014459;28;19906;-26
2022/10/12 03:06:31;;;;;;;;;;;17.80;99.90;;;;;;5014638;28;19912;-25
2022/10/12 03:08:56;;;;;;;;;;;17.80;99.90;;;;;;5014421;28;19932;-22
2022/10/12 03:11:22;;;;;;;;;;;17.80;99.90;;;;;;5014516;28;19909;-25
2022/10/12 03:13:51;;;;;;;;;;;17.80;99.90;;;;;;5014419;28;19909;-27
2022/10/12 03:16:16;;;;;;;;;;;17.80;99.90;;;;;;5014833;28;20429;-25
2022/10/12 03:18:42;;;;;;;;;;;17.80;99.90;;;;;;5014472;28;20019;-25
2022/10/12 03:21:08;;;;;;;;;;;17.70;99.90;;;;;;5014305;28;19909;-25
2022/10/12 03:23:33;;;;;;;;;;;17.70;99.90;;;;;;5014123;28;20286;-25
2022/10/12 03:25:59;;;;;;;;;;;17.70;99.90;;;;;;5014512;28;19906;-25
2022/10/12 03:28:24;;;;;;;;;;;17.70;99.90;;;;;;5014252;28;19912;-25
2022/10/12 03:30:50;;;;;;;;;;;17.70;99.90;;;;;;5014164;28;19909;-25
2022/10/12 03:33:15;;;;;;;;;;;17.70;99.90;;;;;;5013751;28;20378;-25
2022/10/12 03:35:44;;;;;;;;;;;17.70;99.90;;;;;;5014196;28;19906;-25
2022/10/12 03:38:10;;;;;;;;;;;17.70;99.90;;;;;;5013999;28;20004;-25
2022/10/12 03:40:36;;;;;;;;;;;17.70;99.90;;;;;;5014044;28;20374;-25
2022/10/12 03:43:02;;;;;;;;;;;17.70;99.90;;;;;;5014746;28;19912;-25
2022/10/12 03:45:27;;;;;;;;;;;17.70;99.90;;;;;;5014833;28;20282;-26
2022/10/12 03:47:53;;;;;;;;;;;17.70;99.90;;;;;;5014281;28;19905;-26
2022/10/12 03:50:18;;;;;;;;;;;17.70;99.90;;;;;;5014431;28;19920;-26
2022/10/12 03:52:44;;;;;;;;;;;17.70;99.90;;;;;;5013926;28;19913;-25
2022/10/12 03:55:09;;;;;;;;;;;17.70;99.90;;;;;;5014447;28;19925;-25
2022/10/12 03:57:35;;;;;;;;;;;17.70;99.90;;;;;;5013812;28;19916;-25
2022/10/12 04:00:00;;;;;;;;;;;17.70;99.90;;;;;;5014050;28;19909;-25
2022/10/12 04:02:26;;;;;;;;;;;17.70;99.90;;;;;;5013561;28;19905;-26
2022/10/12 04:04:52;;;;;;;;;;;17.70;99.90;;;;;;5013517;28;19912;-25
2022/10/12 04:07:18;;;;;;;;;;;17.70;99.90;;;;;;5013427;28;19905;-26
2022/10/12 04:09:43;;;;;;;;;;;17.70;99.90;;;;;;5013360;28;20306;-25
2022/10/12 04:12:09;;;;;;;;;;;17.70;99.90;;;;;;5013448;28;20043;-25
2022/10/12 04:14:34;;;;;;;;;;;17.70;99.90;;;;;;5013225;28;20390;-25
2022/10/12 04:17:00;;;;;;;;;;;17.70;99.90;;;;;;5013463;28;19906;-25
2022/10/12 04:19:25;;;;;;;;;;;17.70;99.90;;;;;;5013122;28;19917;-25
2022/10/12 04:21:51;;;;;;;;;;;17.70;99.90;;;;;;5013181;28;19916;-26
2022/10/12 04:24:17;;;;;;;;;;;17.70;99.90;;;;;;5013007;28;19910;-27
2022/10/12 04:26:42;;;;;;;;;;;17.70;99.90;;;;;;5013206;28;20413;-25
2022/10/12 04:29:10;;;;;;;;;;;17.70;99.90;;;;;;5013127;28;19909;-25
2022/10/12 04:31:35;;;;;;;;;;;17.70;99.90;;;;;;5013112;28;19906;-25
2022/10/12 04:34:01;;;;;;;;;;;17.70;99.90;;;;;;5012964;28;19912;-25
2022/10/12 04:36:26;;;;;;;;;;;17.70;99.90;;;;;;5012828;28;19952;-25
2022/10/12 04:38:52;;;;;;;;;;;17.70;99.90;;;;;;5013000;28;19916;-25
2022/10/12 04:41:18;;;;;;;;;;;17.70;99.90;;;;;;5013032;28;19963;-26
2022/10/12 04:43:43;;;;;;;;;;;17.70;99.90;;;;;;5012331;28;19913;-25
2022/10/12 04:46:09;;;;;;;;;;;17.70;99.90;;;;;;5012975;28;19906;-25
2022/10/12 04:48:34;;;;;;;;;;;17.70;99.90;;;;;;5012805;28;19968;-26
2022/10/12 04:51:00;;;;;;;;;;;17.70;99.90;;;;;;5012603;28;19955;-25
2022/10/12 04:53:25;;;;;;;;;;;17.70;99.90;;;;;;5012468;28;19909;-25
2022/10/12 04:55:51;;;;;;;;;;;17.70;99.90;;;;;;5012789;28;19905;-25
2022/10/12 04:58:16;;;;;;;;;;;17.70;99.90;;;;;;5012728;28;20016;-25
2022/10/12 05:00:42;;;;;;;;;;;17.70;99.90;;;;;;5012509;28;20536;-26
2022/10/12 05:03:07;;;;;;;;;;;17.70;99.90;;;;;;5012362;28;19905;-26
2022/10/12 05:05:34;;;;;;;;;;;17.60;99.90;;;;;;5012440;28;20327;-25
2022/10/12 05:08:00;;;;;;;;;;;17.60;99.90;;;;;;5012356;28;20279;-26
2022/10/12 05:10:26;;;;;;;;;;;17.70;99.90;;;;;;5012411;28;20098;-25
2022/10/12 05:12:51;;;;;;;;;;;17.60;99.90;;;;;;5012148;28;19912;-25
2022/10/12 05:15:17;;;;;;;;;;;17.60;99.90;;;;;;5012536;28;20322;-26
2022/10/12 05:17:42;;;;;;;;;;;17.60;99.90;;;;;;5010688;28;20226;-26
2022/10/12 05:20:08;;;;;;;;;;;17.60;99.90;;;;;;5012535;28;19914;-25
2022/10/12 05:22:34;;;;;;;;;;;17.60;99.90;;;;;;5012091;28;19916;-25
2022/10/12 05:24:59;;;;;;;;;;;17.70;99.90;;;;;;5012290;28;19910;-25
2022/10/12 05:27:25;;;;;;;;;;;17.60;99.90;;;;;;5012073;28;20366;-26
2022/10/12 05:29:50;;;;;;;;;;;17.60;99.90;;;;;;5012004;28;19914;-25
2022/10/12 05:32:16;;;;;;;;;;;17.70;99.90;;;;;;5012022;28;19905;-25
2022/10/12 05:34:42;;;;;;;;;;;17.70;99.90;;;;;;5011955;28;20286;-25
2022/10/12 05:37:08;;;;;;;;;;;17.60;99.90;;;;;;5011777;28;19909;-25
2022/10/12 05:39:35;;;;;;;;;;;17.60;99.90;;;;;;5011927;28;20427;-26
2022/10/12 05:42:00;;;;;;;;;;;17.60;99.90;;;;;;5012194;28;19972;-26
2022/10/12 05:44:26;;;;;;;;;;;17.60;99.90;;;;;;5011776;28;20007;-26
2022/10/12 05:46:51;;;;;;;;;;;17.60;99.90;;;;;;5012203;28;20286;-25
2022/10/12 05:49:17;;;;;;;;;;;17.60;99.90;;;;;;5011954;28;20367;-25
2022/10/12 05:51:42;;;;;;;;;;;17.60;99.90;;;;;;5011800;28;19916;-25
2022/10/12 05:54:08;;;;;;;;;;;17.60;99.90;;;;;;5011543;28;19912;-26
2022/10/12 05:56:33;;;;;;;;;;;17.60;99.90;;;;;;5013353;28;19905;-25
2022/10/12 05:58:59;;;;;;;;;;;17.60;99.90;;;;;;5015571;28;19948;-25
2022/10/12 06:01:24;;;;;;;;;;;17.60;99.90;;;;;;5015674;28;19906;-25
2022/10/12 06:03:50;;;;;;;;;;;17.60;99.90;;;;;;5015954;28;19905;-25
2022/10/12 06:06:16;;;;;;;;;;;17.60;99.90;;;;;;5015844;28;19913;-25
2022/10/12 06:08:41;;;;;;;;;;;17.60;99.90;;;;;;5015654;28;19932;-26
2022/10/12 06:11:07;;;;;;;;;;;17.60;99.90;;;;;;5015566;28;19914;-26
2022/10/12 06:13:32;;;;;;;;;;;17.60;99.90;;;;;;5015431;28;20310;-26
2022/10/12 06:15:58;;;;;;;;;;;17.60;99.90;;;;;;5015614;28;19981;-26
2022/10/12 06:18:23;;;;;;;;;;;17.60;99.90;;;;;;5015124;28;19996;-25
2022/10/12 06:20:51;;;;;;;;;;;17.60;99.90;;;;;;5015392;28;20011;-25
2022/10/12 06:23:17;;;;;;;;;;;17.60;99.90;;;;;;5015493;28;19905;-26
2022/10/12 06:25:46;;;;;;;;;;;17.60;99.90;;;;;;5014017;28;19909;-25
2022/10/12 06:28:12;;;;;;;;;;;17.60;99.90;;;;;;5014917;28;19912;-26
2022/10/12 06:30:38;;;;;;;;;;;17.60;99.90;;;;;;5015158;28;19910;-26
2022/10/12 06:33:03;;;;;;;;;;;17.60;99.90;;;;;;5013466;28;19983;-26
2022/10/12 06:35:29;;;;;;;;;;;17.50;99.90;;;;;;5015486;28;20119;-25
2022/10/12 06:37:54;;;;;;;;;;;17.60;99.90;;;;;;5015220;28;19912;-26
2022/10/12 06:40:20;;;;;;;;;;;17.60;99.90;;;;;;5013785;28;20274;-25
2022/10/12 06:42:47;;;;;;;;;;;17.50;99.90;;;;;;5014903;28;19909;-26
2022/10/12 06:45:13;;;;;;;;;;;17.50;99.90;;;;;;5013692;28;19905;-26
2022/10/12 06:47:38;;;;;;;;;;;17.60;99.90;;;;;;5014602;28;20382;-26
2022/10/12 06:50:04;;;;;;;;;;;17.60;99.90;;;;;;5013462;28;20036;-26
2022/10/12 06:52:30;;;;;;;;;;;17.50;99.90;;;;;;5014382;28;19955;-26
2022/10/12 06:54:56;;;;;;;;;;;17.30;99.90;;;;;;5014562;28;19911;-25
2022/10/12 06:57:21;;;;;;;;;;;17.20;99.90;;;;;;5014504;28;20341;-26
2022/10/12 06:59:47;;;;;;;;;;;17.20;99.90;;;;;;5014535;28;19909;-27
2022/10/12 07:02:12;;;;;;;;;;;17.30;99.90;;;;;;5014491;28;19909;-26
2022/10/12 07:04:38;;;;;;;;;;;17.30;99.90;;;;;;5014354;28;19909;-26
2022/10/12 07:07:03;;;;;;;;;;;17.40;99.90;;;;;;5013782;28;19912;-26
2022/10/12 07:09:29;;;;;;;;;;;17.40;99.90;;;;;;5014286;28;20008;-26
2022/10/12 07:11:54;;;;;;;;;;;17.40;99.90;;;;;;5014430;28;19927;-25
2022/10/12 07:14:20;;;;;;;;;;;17.40;99.90;;;;;;5014185;28;20498;-26
2022/10/12 07:16:46;;;;;;;;;;;17.50;99.90;;;;;;5014072;28;19913;-26
2022/10/12 07:19:11;;;;;;;;;;;17.50;99.90;;;;;;5014276;28;20363;-25
2022/10/12 07:21:37;;;;;;;;;;;17.50;99.90;;;;;;5014094;28;19905;-25
2022/10/12 07:24:02;;;;;;;;;;;17.50;99.90;;;;;;5013744;28;19917;-25
2022/10/12 07:26:28;;;;;;;;;;;17.40;99.90;;;;;;5013838;28;19912;-26
2022/10/12 07:28:53;;;;;;;;;;;17.50;99.90;;;;;;5013809;28;19905;-25
2022/10/12 07:31:19;;;;;;;;;;;17.50;99.90;;;;;;5013939;28;20325;-25
2022/10/12 07:33:45;;;;;;;;;;;17.40;99.90;;;;;;5013729;28;19916;-25
2022/10/12 07:36:10;;;;;;;;;;;17.40;99.90;;;;;;5013824;28;20318;-26
2022/10/12 07:38:36;;;;;;;;;;;17.40;99.90;;;;;;5013764;28;19996;-25
2022/10/12 07:41:02;;;;;;;;;;;17.40;99.90;;;;;;5013877;28;19905;-25
2022/10/12 07:43:28;;;;;;;;;;;17.40;99.90;;;;;;5013529;28;20363;-27
2022/10/12 07:45:54;;;;;;;;;;;17.40;99.90;;;;;;5013641;28;19945;-25
2022/10/12 07:48:20;;;;;;;;;;;17.40;99.90;;;;;;5013579;28;19952;-25
2022/10/12 07:50:46;;;;;;;;;;;17.40;99.90;;;;;;5013441;28;19952;-26
2022/10/12 07:53:11;;;;;;;;;;;17.40;99.90;;;;;;5013389;28;19937;-25
2022/10/12 07:55:37;;;;;;;;;;;17.40;99.90;;;;;;5013523;28;20345;-27
2022/10/12 07:58:03;;;;;;;;;;;17.40;99.90;;;;;;5013342;28;19971;-25
2022/10/12 08:00:29;;;;;;;;;;;17.40;99.90;;;;;;5013246;28;20493;-25
2022/10/12 08:02:55;;;;;;;;;;;17.40;99.90;;;;;;5013135;28;20326;-25
2022/10/12 08:05:21;;;;;;;;;;;17.40;99.90;;;;;;5013292;28;19905;-25
2022/10/12 08:07:47;;;;;;;;;;;17.40;99.90;;;;;;5013441;28;20016;-25
2022/10/12 08:10:13;;;;;;;;;;;17.40;99.90;;;;;;5013019;28;19909;-25
2022/10/12 08:12:38;;;;;;;;;;;17.40;99.90;;;;;;5013018;28;19988;-26
2022/10/12 08:15:04;;;;;;;;;;;17.40;99.90;;;;;;5012947;28;19937;-26
2022/10/12 08:17:29;;;;;;;;;;;17.40;99.90;;;;;;5012939;28;19992;-25
2022/10/12 08:19:55;;;;;;;;;;;17.40;99.90;;;;;;5011907;28;19917;-26
2022/10/12 08:22:20;;;;;;;;;;;17.40;99.90;;;;;;5013009;28;19905;-26
2022/10/12 08:24:46;;;;;;;;;;;17.40;99.90;;;;;;5012844;28;19945;-25
2022/10/12 08:27:11;;;;;;;;;;;17.40;99.90;;;;;;5012992;28;20315;-25
2022/10/12 08:29:38;;;;;;;;;;;17.40;99.90;;;;;;5012654;28;19909;-25
2022/10/12 08:32:04;;;;;;;;;;;17.40;99.90;;;;;;5013336;28;19909;-25
2022/10/12 08:34:29;;;;;;;;;;;17.40;99.90;;;;;;5012516;28;20282;-25
2022/10/12 08:36:56;;;;;;;;;;;17.50;99.90;;;;;;5011545;28;19913;-26
2022/10/12 08:39:22;;;;;;;;;;;17.50;99.90;;;;;;5012565;28;19905;-26
2022/10/12 08:42:10;;;;;;;;;;;17.50;99.90;;;;;;5012724;28;19928;-25
2022/10/12 08:44:48;;;;;;;;;;;17.40;99.90;;;;;;5012354;28;19995;-25
2022/10/12 08:47:15;;;;;;;;;;;17.50;99.90;;;;;;5012771;28;19917;-26
2022/10/12 08:49:42;;;;;;;;;;;17.50;99.90;;;;;;5012472;28;19917;-25
2022/10/12 08:52:21;;;;;;;;;;;17.50;99.90;;;;;;5012371;28;19909;-26
2022/10/12 08:54:47;;;;;;;;;;;17.50;99.90;;;;;;5012159;28;20414;-25
2022/10/12 08:57:16;;;;;;;;;;;17.50;99.90;;;;;;5012317;28;19910;-27
2022/10/12 08:59:42;;;;;;;;;;;17.40;99.90;;;;;;5012272;28;19906;-26
2022/10/12 09:02:19;;;;;;;;;;;17.40;99.90;;;;;;5012275;28;19916;-25
2022/10/12 09:04:55;;;;;;;;;;;17.40;99.90;;;;;;5012220;28;19912;-25
2022/10/12 09:07:23;;;;;;;;;;;17.50;99.90;;;;;;5012147;28;19911;-26
2022/10/12 09:10:04;;;;;;;;;;;17.50;99.90;;;;;;5012304;28;19909;-26
2022/10/12 09:12:40;;;;;;;;;;;17.40;99.90;;;;;;5011890;28;19994;-26
2022/10/12 09:15:15;;;;;;;;;;;17.50;99.90;;;;;;5012652;28;19905;-25
2022/10/12 09:17:44;;;;;;;;;;;17.50;99.90;;;;;;5012249;28;20355;-26
2022/10/12 09:20:29;;;;;;;;;;;17.40;99.90;;;;;;5012485;28;19913;-25
2022/10/12 09:23:02;;;;;;;;;;;17.30;99.90;;;;;;5012381;28;20176;-26
2022/10/12 09:25:28;;;;;;;;;;;17.30;99.90;;;;;;5012435;28;19911;-25
2022/10/12 09:27:55;;;;;;;;;;;17.30;99.90;;;;;;5012412;28;19909;-25
2022/10/12 09:30:21;;;;;;;;;;;17.30;99.90;;;;;;5012171;28;19914;-25
2022/10/12 09:32:46;;;;;;;;;;;17.40;99.90;;;;;;5012242;28;19906;-25
2022/10/12 09:35:12;;;;;;;;;;;17.40;99.90;;;;;;5012805;28;19948;-26
2022/10/12 09:37:38;;;;;;;;;;;17.40;99.90;;;;;;5012501;28;19905;-26
2022/10/12 09:40:04;;;;;;;;;;;17.40;99.90;;;;;;5013013;28;20004;-26
2022/10/12 09:42:30;;;;;;;;;;;17.50;99.90;;;;;;5011601;28;19959;-26
2022/10/12 09:45:00;;;;;;;;;;;17.40;99.90;;;;;;5011549;28;19955;-26
2022/10/12 09:47:28;;;;;;;;;;;17.50;99.90;;;;;;5012181;28;19909;-27
2022/10/12 09:49:57;;;;;;;;;;;17.50;99.90;;;;;;5012508;28;20385;-26
2022/10/12 09:52:35;;;;;;;;;;;17.50;99.90;;;;;;5012855;28;20113;-25
2022/10/12 09:55:00;;;;;;;;;;;17.50;99.90;;;;;;5013094;28;19956;-25
2022/10/12 09:57:34;;;;;;;;;;;17.50;99.90;;;;;;5012502;28;19909;-26
2022/10/12 10:00:05;;;;;;;;;;;17.50;99.90;;;;;;5012826;28;19960;-26
2022/10/12 10:02:31;;;;;;;;;;;17.50;99.90;;;;;;5012274;28;19906;-25
2022/10/12 10:05:12;;;;;;;;;;;17.50;99.90;;;;;;5012135;28;19905;-27
2022/10/12 10:07:38;;;;;;;;;;;17.50;99.90;;;;;;5012026;28;19912;-26
2022/10/12 10:10:16;;;;;;;;;;;17.50;99.90;;;;;;5012117;28;20020;-25
2022/10/12 10:12:53;;;;;;;;;;;17.50;99.90;;;;;;5012048;28;19916;-25
2022/10/12 10:15:29;;;;;;;;;;;17.50;99.90;;;;;;5011961;28;19909;-26
2022/10/12 10:17:55;;;;;;;;;;;17.50;99.90;;;;;;5012154;28;19909;-26
2022/10/12 10:20:27;;;;;;;;;;;17.50;99.90;;;;;;5012349;28;20298;-26
2022/10/12 10:22:53;;;;;;;;;;;17.50;99.90;;;;;;5012214;28;19915;-26
2022/10/12 10:25:19;;;;;;;;;;;17.50;99.90;;;;;;5012277;28;20278;-27
2022/10/12 10:27:45;;;;;;;;;;;17.50;99.90;;;;;;5012044;28;19952;-25
2022/10/12 10:30:14;;;;;;;;;;;17.60;99.90;;;;;;5011979;28;19936;-25
2022/10/12 10:32:40;;;;;;;;;;;17.60;99.90;;;;;;5012061;28;19912;-26
2022/10/12 10:35:11;;;;;;;;;;;17.50;99.90;;;;;;5012191;28;19909;-27
2022/10/12 10:37:41;;;;;;;;;;;17.50;99.90;;;;;;5012202;28;19959;-27
2022/10/12 10:40:15;;;;;;;;;;;17.50;99.90;;;;;;5012190;28;20393;-26
2022/10/12 10:42:41;;;;;;;;;;;17.50;99.90;;;;;;5014233;28;20298;-26
2022/10/12 10:45:07;;;;;;;;;;;17.50;99.90;;;;;;5015260;28;20008;-26
2022/10/12 10:47:40;;;;;;;;;;;17.50;99.90;;;;;;5015610;28;19909;-27
2022/10/12 10:50:19;;;;;;;;;;;17.50;99.90;;;;;;5015505;28;19913;-26
2022/10/12 10:52:51;;;;;;;;;;;17.60;99.90;;;;;;5015239;28;19913;-26
2022/10/12 10:55:19;;;;;;;;;;;17.60;99.90;;;;;;5014849;28;19906;-25
2022/10/12 10:57:56;;;;;;;;;;;17.60;99.90;;;;;;5014953;28;20498;-26
2022/10/12 11:00:22;;;;;;;;;;;17.60;99.90;;;;;;5014022;28;19966;-25
2022/10/12 11:02:52;;;;;;;;;;;17.60;99.90;;;;;;5014977;28;20383;-26
2022/10/12 11:05:22;;;;;;;;;;;17.60;99.90;;;;;;5015210;28;19953;-25
2022/10/12 11:07:58;;;;;;;;;;;17.60;99.90;;;;;;5015148;28;19906;-26
2022/10/12 11:10:28;;;;;;;;;;;17.60;99.90;;;;;;5014825;28;19916;-26
2022/10/12 11:13:11;;;;;;;;;;;17.60;99.90;;;;;;5014731;28;19910;-26
2022/10/12 11:15:40;;;;;;;;;;;17.60;99.90;;;;;;5015097;28;20005;-27
2022/10/12 11:18:10;;;;;;;;;;;17.60;99.90;;;;;;5014915;28;19910;-26
2022/10/12 11:20:38;;;;;;;;;;;17.60;99.90;;;;;;5014116;28;19913;-26
2022/10/12 11:23:08;;;;;;;;;;;17.60;99.90;;;;;;5014744;28;19906;-26
2022/10/12 11:25:49;;;;;;;;;;;17.60;99.90;;;;;;5014493;28;19955;-26
2022/10/12 11:28:14;;;;;;;;;;;17.60;99.90;;;;;;5014248;28;19906;-25
2022/10/12 11:30:42;;;;;;;;;;;17.60;99.90;;;;;;5015195;28;19909;-26
2022/10/12 11:33:17;;;;;;;;;;;17.60;99.90;;;;;;5015191;28;20367;-25
2022/10/12 11:35:44;;;;;;;;;;;17.60;99.90;;;;;;5015756;28;20290;-25
2022/10/12 11:38:30;;;;;;;;;;;17.70;99.90;;;;;;5016052;28;19917;-27
2022/10/12 11:40:58;;;;;;;;;;;17.70;99.90;;;;;;5015016;28;20375;-25
2022/10/12 11:43:27;;;;;;;;;;;17.70;99.90;;;;;;5014114;28;20298;-25
2022/10/12 11:45:55;;;;;;;;;;;17.70;99.90;;;;;;5014279;28;19909;-25
2022/10/12 11:48:23;;;;;;;;;;;17.70;99.90;;;;;;5014158;28;20363;-25
2022/10/12 11:50:49;;;;;;;;;;;17.70;99.90;;;;;;5014297;28;19909;-25
2022/10/12 11:53:20;;;;;;;;;;;17.70;99.90;;;;;;5013785;28;20355;-25
2022/10/12 11:56:04;;;;;;;;;;;17.80;99.90;;;;;;5014036;28;20402;-25
2022/10/12 11:58:33;;;;;;;;;;;17.80;99.90;;;;;;5014035;28;19913;-25
2022/10/12 12:01:09;;;;;;;;;;;17.80;99.90;;;;;;5014041;28;19913;-25
2022/10/12 12:03:44;;;;;;;;;;;17.80;99.90;;;;;;5013944;28;19905;-25
2022/10/12 12:06:28;;;;;;;;;;;17.80;99.90;;;;;;5013812;28;19967;-27
2022/10/12 12:08:53;;;;;;;;;;;17.80;99.90;;;;;;5013702;28;20606;-25
2022/10/12 12:11:20;;;;;;;;;;;17.80;99.90;;;;;;5013561;28;19967;-25
2022/10/12 12:13:46;;;;;;;;;;;17.70;99.90;;;;;;5013706;28;20023;-25
2022/10/12 12:16:11;;;;;;;;;;;17.70;99.90;;;;;;5013843;28;19975;-25
2022/10/12 12:18:56;;;;;;;;;;;17.60;99.90;;;;;;5013672;28;19913;-25
2022/10/12 12:21:21;;;;;;;;;;;17.70;99.90;;;;;;5013993;28;19988;-25
2022/10/12 12:23:52;;;;;;;;;;;17.70;99.90;;;;;;5013720;28;19944;-25
2022/10/12 12:26:19;;;;;;;;;;;17.80;99.90;;;;;;5013870;28;19905;-25
2022/10/12 12:28:46;;;;;;;;;;;17.90;99.90;;;;;;5013688;28;20003;-26
2022/10/12 12:31:13;;;;;;;;;;;18.00;99.90;;;;;;5013692;28;19932;-25
2022/10/12 12:33:41;;;;;;;;;;;18.00;99.90;;;;;;5013234;28;19905;-25
2022/10/12 12:36:06;;;;;;;;;;;18.00;99.90;;;;;;5013490;28;19905;-26
2022/10/12 12:38:33;;;;;;;;;;;18.10;99.90;;;;;;5013309;28;19912;-25
2022/10/12 12:41:08;;;;;;;;;;;18.10;99.90;;;;;;5013364;28;19912;-25
2022/10/12 12:43:35;;;;;;;;;;;18.10;99.90;;;;;;5013497;28;19909;-25
2022/10/12 12:46:01;;;;;;;;;;;18.20;99.90;;;;;;5013236;28;19959;-26
2022/10/12 12:48:42;;;;;;;;;;;18.20;99.90;;;;;;5013364;28;20244;-25
2022/10/12 12:51:16;;;;;;;;;;;18.20;99.90;;;;;;5013217;28;20446;-26
2022/10/12 12:53:45;;;;;;;;;;;18.30;99.90;;;;;;5013055;28;19912;-26
2022/10/12 12:56:22;;;;;;;;;;;18.40;99.90;;;;;;5013182;28;20196;-25
2022/10/12 12:58:51;;;;;;;;;;;18.40;99.90;;;;;;5012943;28;19909;-25
2022/10/12 13:01:44;;;;;;;;;;;18.50;99.90;;;;;;5012959;28;19906;-25
2022/10/12 13:04:12;;;;;;;;;;;18.50;99.90;;;;;;5012736;28;20264;-25
2022/10/12 13:06:57;;;;;;;;;;;18.50;99.90;;;;;;5012457;28;19951;-25
2022/10/12 13:09:31;;;;;;;;;;;18.60;99.90;;;;;;5012702;28;19909;-25
2022/10/12 13:12:11;;;;;;;;;;;18.60;99.90;;;;;;5013065;28;19910;-25
2022/10/12 13:14:52;;;;;;;;;;;18.60;99.90;;;;;;5012637;28;19910;-25
2022/10/12 13:17:23;;;;;;;;;;;18.60;99.90;;;;;;5012506;28;20043;-25
2022/10/12 13:19:52;;;;;;;;;;;18.60;99.90;;;;;;5035208;22;19956;-23
2022/10/12 13:22:28;;;;;;;;;;;18.70;99.90;;;;;;5011997;28;20345;-23
2022/10/12 13:24:57;;;;;;;;;;;18.60;99.90;;;;;;5010952;28;19936;-23
2022/10/12 13:27:31;;;;;;;;;;;18.60;99.90;;;;;;5012413;28;19913;-23
2022/10/12 13:30:01;;;;;;;;;;;18.60;99.90;;;;;;5013411;28;20434;-23
2022/10/12 13:32:45;;;;;;;;;;;18.60;99.90;;;;;;5012675;28;19905;-23
2022/10/12 13:35:17;;;;;;;;;;;18.60;99.90;;;;;;5012209;28;20370;-23
2022/10/12 13:37:43;;;;;;;;;;;18.60;99.90;;;;;;5012850;28;19909;-23
2022/10/12 13:40:28;;;;;;;;;;;18.60;99.90;;;;;;5012287;28;20271;-23
2022/10/12 13:42:53;;;;;;;;;;;18.60;99.90;;;;;;5012741;28;19962;-23
2022/10/12 13:45:19;;;;;;;;;;;18.50;99.90;;;;;;5012053;28;20416;-23
2022/10/12 13:47:44;;;;;;;;;;;18.50;99.90;;;;;;5012419;28;19905;-23
2022/10/12 13:50:19;;;;;;;;;;;18.50;99.90;;;;;;5011682;28;19916;-23
2022/10/12 13:52:54;;;;;;;;;;;18.50;99.90;;;;;;5010323;28;19912;-24
2022/10/12 13:55:25;;;;;;;;;;;18.50;99.90;;;;;;5011938;28;20055;-23
2022/10/12 13:57:51;;;;;;;;;;;18.50;99.90;;;;;;5010627;28;19905;-23
2022/10/12 14:00:18;;;;;;;;;;;18.50;99.90;;;;;;5011987;28;19906;-23
2022/10/12 14:02:58;;;;;;;;;;;18.50;99.90;;;;;;5010435;28;19909;-23
2022/10/12 14:05:25;;;;;;;;;;;18.50;99.90;;;;;;5010565;28;19906;-23
2022/10/12 14:07:55;;;;;;;;;;;18.50;99.90;;;;;;5012093;28;20412;-23
2022/10/12 14:10:23;;;;;;;;;;;18.50;99.90;;;;;;5011844;28;20378;-23
2022/10/12 14:12:50;;;;;;;;;;;18.60;99.90;;;;;;5011521;28;19995;-23
2022/10/12 14:15:16;;;;;;;;;;;18.60;99.90;;;;;;5010394;28;19965;-23
2022/10/12 14:17:45;;;;;;;;;;;18.60;99.90;;;;;;5012359;28;19956;-23
2022/10/12 14:20:35;;;;;;;;;;;18.60;99.90;;;;;;5015135;28;19913;-23
2022/10/12 14:23:03;;;;;;;;;;;18.60;99.90;;;;;;5015232;28;19909;-23
2022/10/12 14:25:29;;;;;;;;;;;18.60;99.90;;;;;;5014895;28;19940;-23